Terminal Aerodrome Forecast
Issued by NWS Grand Forks, ND

Home | Current Version | Previous Version | Text Only | Print | Product List | Glossary Off
Versions: 1 2 3 4 5 6 7 8 9 10 11 12 13 14 15 16 17 18 19

394
FTUS43 KFGF 201618 AAB
TAFFAR
TAF AMD
KFAR 201618Z 2016/2112 15011KT 2SM -RA BR BKN005 BKN010
     FM201800 19011KT P6SM VCSH OVC015
     FM202000 25012KT P6SM VCSH OVC035
     FM202200 27014KT P6SM BKN035
     FM210900 20006KT P6SM SCT100=

USA.gov is the U.S. government's official web portal to all federal, state and local government web resources and services.